createdAt,value
2022-12-14T00:01:35.562Z,-4.80
2022-12-14T00:04:02.375Z,-4.90
2022-12-14T00:06:31.537Z,-4.80
2022-12-14T00:09:01.247Z,-4.80
2022-12-14T00:11:28.732Z,-4.80
2022-12-14T00:13:58.480Z,-4.80
2022-12-14T00:16:27.285Z,-4.80
2022-12-14T00:18:55.951Z,-4.80
2022-12-14T00:21:23.488Z,-4.80
2022-12-14T00:23:51.835Z,-4.80
2022-12-14T00:26:22.386Z,-4.80
2022-12-14T00:28:51.154Z,-4.80
2022-12-14T00:31:18.414Z,-4.80
2022-12-14T00:33:45.478Z,-4.80
2022-12-14T00:36:12.953Z,-4.80
2022-12-14T00:38:40.693Z,-4.80
2022-12-14T00:41:08.331Z,-4.80
2022-12-14T00:43:35.381Z,-4.70
2022-12-14T00:46:02.520Z,-4.80
2022-12-14T00:48:30.317Z,-4.70
2022-12-14T00:50:57.776Z,-4.70
2022-12-14T00:53:25.597Z,-4.70
2022-12-14T00:55:52.838Z,-4.70
2022-12-14T00:58:22.107Z,-4.70
2022-12-14T01:01:08.679Z,-4.60
2022-12-14T01:03:36.074Z,-4.60
2022-12-14T01:06:03.473Z,-4.70
2022-12-14T01:08:35.779Z,-4.60
2022-12-14T01:11:05.486Z,-4.60
2022-12-14T01:13:32.532Z,-4.60
2022-12-14T01:16:07.108Z,-4.60
2022-12-14T01:18:35.816Z,-4.60
2022-12-14T01:21:12.909Z,-4.60
2022-12-14T01:23:40.091Z,-4.60
2022-12-14T01:26:06.905Z,-4.60
2022-12-14T01:28:35.124Z,-4.60
2022-12-14T01:31:19.784Z,-4.60
2022-12-14T01:33:48.087Z,-4.60
2022-12-14T01:36:20.830Z,-4.60
2022-12-14T01:38:52.090Z,-4.60
2022-12-14T01:41:33.160Z,-4.60
2022-12-14T01:44:07.863Z,-4.50
2022-12-14T01:46:40.513Z,-4.50
2022-12-14T01:49:32.934Z,-4.50
2022-12-14T01:52:22.154Z,-4.50
2022-12-14T01:55:03.059Z,-4.60
2022-12-14T01:57:38.863Z,-4.60
2022-12-14T02:00:09.159Z,-4.60
2022-12-14T02:02:44.150Z,-4.60
2022-12-14T02:05:13.016Z,-4.60
2022-12-14T02:07:41.500Z,-4.50
2022-12-14T02:10:09.332Z,-4.60
2022-12-14T02:12:47.546Z,-4.60
2022-12-14T02:15:14.764Z,-4.50
2022-12-14T02:17:46.548Z,-4.50
2022-12-14T02:20:14.738Z,-4.50
2022-12-14T02:23:09.567Z,-4.50
2022-12-14T02:26:07.942Z,-4.50
2022-12-14T02:29:02.644Z,-4.50
2022-12-14T02:31:56.785Z,-4.50
2022-12-14T02:35:00.623Z,-4.50
2022-12-14T02:37:59.864Z,-4.40
2022-12-14T02:40:35.373Z,-4.40
2022-12-14T02:43:40.672Z,-4.40
2022-12-14T02:46:10.892Z,-4.40
2022-12-14T02:51:27.499Z,-4.40
2022-12-14T02:53:59.377Z,-4.40
2022-12-14T02:56:35.986Z,-4.40
2022-12-14T02:59:04.364Z,-4.40
2022-12-14T03:01:31.783Z,-4.40
2022-12-14T03:03:58.772Z,-4.40
2022-12-14T03:06:26.293Z,-4.30
2022-12-14T03:09:08.701Z,-4.40
2022-12-14T03:11:41.437Z,-4.30
2022-12-14T03:14:22.758Z,-4.40
2022-12-14T03:16:52.125Z,-4.30
2022-12-14T03:19:38.936Z,-4.30
2022-12-14T03:22:15.378Z,-4.30
2022-12-14T03:24:47.467Z,-4.40
2022-12-14T03:27:25.351Z,-4.40
2022-12-14T03:30:03.065Z,-4.30
2022-12-14T03:32:32.341Z,-4.30
2022-12-14T03:35:04.475Z,-4.30
2022-12-14T03:37:53.410Z,-4.30
2022-12-14T03:40:33.517Z,-4.20
2022-12-14T03:43:17.358Z,-4.30
2022-12-14T03:45:57.732Z,-4.30
2022-12-14T03:48:48.521Z,-4.30
2022-12-14T03:51:35.505Z,-4.30
2022-12-14T03:54:26.541Z,-4.30
2022-12-14T03:57:05.761Z,-4.30
2022-12-14T03:59:49.829Z,-4.30
2022-12-14T04:02:27.270Z,-4.30
2022-12-14T04:05:06.456Z,-4.30
2022-12-14T04:08:08.861Z,-4.20
2022-12-14T04:11:08.746Z,-4.20
2022-12-14T04:13:59.206Z,-4.20
2022-12-14T04:16:51.869Z,-4.20
2022-12-14T04:19:35.036Z,-4.20
2022-12-14T04:22:09.113Z,-4.10
2022-12-14T04:25:06.993Z,-4.10
2022-12-14T04:28:48.674Z,-4.10
2022-12-14T04:31:18.722Z,-4.20
2022-12-14T04:33:51.671Z,-4.10
2022-12-14T04:36:32.315Z,-4.10
2022-12-14T04:39:04.553Z,-4.10
2022-12-14T04:41:34.606Z,-4.10
2022-12-14T04:44:07.638Z,-4.10
2022-12-14T04:46:40.565Z,-4.00
2022-12-14T04:49:16.973Z,-4.00
2022-12-14T04:52:19.549Z,-4.10
2022-12-14T04:54:52.711Z,-4.10
2022-12-14T04:57:46.005Z,-4.10
2022-12-14T05:00:14.150Z,-4.00
2022-12-14T05:03:09.661Z,-4.00
2022-12-14T05:05:53.638Z,-4.00
2022-12-14T05:08:50.936Z,-4.10
2022-12-14T05:12:00.159Z,-4.00
2022-12-14T05:14:52.897Z,-4.00
2022-12-14T05:17:19.842Z,-4.10
2022-12-14T05:19:48.742Z,-4.00
2022-12-14T05:22:16.903Z,-4.00
2022-12-14T05:24:43.812Z,-4.00
2022-12-14T05:27:10.689Z,-4.00
2022-12-14T05:29:37.523Z,-4.00
2022-12-14T05:32:04.725Z,-4.00
2022-12-14T05:34:31.660Z,-4.00
2022-12-14T05:36:58.456Z,-4.00
2022-12-14T05:39:25.328Z,-4.00
2022-12-14T05:41:53.409Z,-4.00
2022-12-14T05:44:20.924Z,-4.00
2022-12-14T05:46:48.110Z,-3.90
2022-12-14T05:49:15.031Z,-4.00
2022-12-14T05:51:41.876Z,-4.00
2022-12-14T05:54:08.876Z,-4.00
2022-12-14T05:56:35.778Z,-4.00
2022-12-14T05:59:02.920Z,-4.00
2022-12-14T06:01:29.845Z,-4.00
2022-12-14T06:03:56.814Z,-4.00
2022-12-14T06:06:23.811Z,-4.00
2022-12-14T06:08:51.489Z,-3.90
2022-12-14T06:11:21.231Z,-3.90
2022-12-14T06:13:48.901Z,-4.00
2022-12-14T06:16:24.687Z,-4.00
2022-12-14T06:18:54.321Z,-4.00
2022-12-14T06:21:28.673Z,-3.90
2022-12-14T06:23:56.324Z,-4.00
2022-12-14T06:26:24.143Z,-3.90
2022-12-14T06:28:51.038Z,-3.90
2022-12-14T06:31:24.049Z,-3.90
2022-12-14T06:33:51.736Z,-3.90
2022-12-14T06:36:27.446Z,-3.80
2022-12-14T06:39:00.139Z,-3.80
2022-12-14T06:41:27.026Z,-3.80
2022-12-14T06:43:53.990Z,-3.80
2022-12-14T06:46:24.746Z,-3.80
2022-12-14T06:48:53.621Z,-3.90
2022-12-14T06:51:21.960Z,-3.80
2022-12-14T06:53:57.158Z,-3.80
2022-12-14T06:56:26.286Z,-3.80
2022-12-14T06:58:56.820Z,-3.80
2022-12-14T07:01:25.362Z,-3.80
2022-12-14T07:03:55.064Z,-3.80
2022-12-14T07:06:26.627Z,-3.80
2022-12-14T07:08:56.261Z,-3.70
2022-12-14T07:11:24.178Z,-3.70
2022-12-14T07:13:51.005Z,-3.70
2022-12-14T07:16:26.392Z,-3.70
2022-12-14T07:18:54.295Z,-3.70
2022-12-14T07:21:22.007Z,-3.70
2022-12-14T07:23:52.101Z,-3.70
2022-12-14T07:26:27.593Z,-3.60
2022-12-14T07:28:55.211Z,-3.60
2022-12-14T07:31:26.835Z,-3.60
2022-12-14T07:33:55.715Z,-3.60
2022-12-14T07:36:24.464Z,-3.60
2022-12-14T07:38:52.613Z,-3.60
2022-12-14T07:41:23.107Z,-3.60
2022-12-14T07:43:51.676Z,-3.50
2022-12-14T07:46:21.171Z,-3.40
2022-12-14T07:48:50.696Z,-3.30
2022-12-14T07:51:20.681Z,-3.20
2022-12-14T07:53:48.256Z,-3.10
2022-12-14T07:56:20.554Z,-3.10
2022-12-14T07:58:47.491Z,-3.10
2022-12-14T08:01:22.363Z,-3.10
2022-12-14T08:03:51.941Z,-3.10
2022-12-14T08:06:20.883Z,-3.20
2022-12-14T08:08:47.784Z,-3.20
2022-12-14T08:11:16.709Z,-3.20
2022-12-14T08:13:44.061Z,-3.30
2022-12-14T08:16:16.395Z,-3.30
2022-12-14T08:18:44.250Z,-3.20
2022-12-14T08:21:12.752Z,-3.20
2022-12-14T08:23:41.506Z,-3.20
2022-12-14T08:26:08.887Z,-3.20
2022-12-14T08:28:36.862Z,-3.20
2022-12-14T08:31:12.600Z,-3.10
2022-12-14T08:33:40.919Z,-3.00
2022-12-14T08:36:13.433Z,-3.00
2022-12-14T08:38:41.296Z,-2.80
2022-12-14T08:41:10.700Z,-2.80
2022-12-14T08:43:38.647Z,-2.70
2022-12-14T08:46:06.126Z,-2.70
2022-12-14T08:48:33.177Z,-2.60
2022-12-14T08:51:06.058Z,-2.50
2022-12-14T08:53:33.734Z,-2.50
2022-12-14T08:56:11.990Z,-2.40
2022-12-14T08:58:40.592Z,-2.30
2022-12-14T09:01:13.882Z,-2.30
2022-12-14T09:03:45.018Z,-2.20
2022-12-14T09:06:21.010Z,-2.20
2022-12-14T09:08:49.907Z,-2.30
2022-12-14T09:11:19.175Z,-2.40
2022-12-14T09:13:46.745Z,-2.40
2022-12-14T09:16:20.009Z,-2.50
2022-12-14T09:18:48.202Z,-2.50
2022-12-14T09:21:15.611Z,-2.50
2022-12-14T09:23:42.707Z,-2.40
2022-12-14T09:26:15.499Z,-2.40
2022-12-14T09:28:46.198Z,-2.40
2022-12-14T09:31:15.575Z,-2.30
2022-12-14T09:33:42.883Z,-2.30
2022-12-14T09:36:17.905Z,-2.20
2022-12-14T09:38:51.173Z,-2.10
2022-12-14T09:41:33.942Z,-2.00
2022-12-14T09:44:25.831Z,-2.00
2022-12-14T09:47:04.681Z,-2.00
2022-12-14T09:49:51.718Z,-1.80
2022-12-14T09:52:29.712Z,-1.80
2022-12-14T09:54:58.254Z,-1.70
2022-12-14T09:57:34.537Z,-1.60
2022-12-14T10:00:01.327Z,-1.70
2022-12-14T10:02:50.944Z,-1.80
2022-12-14T10:06:00.567Z,-1.80
2022-12-14T10:08:51.002Z,-1.90
2022-12-14T10:11:45.727Z,-1.90
2022-12-14T10:14:30.166Z,-1.90
2022-12-14T10:17:07.525Z,-1.80
2022-12-14T10:19:42.001Z,-1.90
2022-12-14T10:22:34.960Z,-1.90
2022-12-14T10:25:11.870Z,-1.80
2022-12-14T10:28:09.158Z,-1.90
2022-12-14T10:30:27.005Z,-1.80
2022-12-14T10:33:24.016Z,-1.80
2022-12-14T10:35:52.416Z,-1.80
2022-12-14T10:38:43.444Z,-1.80
2022-12-14T10:41:36.321Z,-1.80
2022-12-14T10:44:03.087Z,-1.70
2022-12-14T10:46:29.880Z,-1.70
2022-12-14T10:49:21.563Z,-1.70
2022-12-14T10:51:52.605Z,-1.70
2022-12-14T10:54:39.354Z,-1.70
2022-12-14T10:57:06.157Z,-1.60
2022-12-14T10:59:42.368Z,-1.60
2022-12-14T11:02:21.380Z,-1.60
2022-12-14T11:05:00.546Z,-1.60
2022-12-14T11:07:33.461Z,-1.50
2022-12-14T11:10:28.411Z,-1.40
2022-12-14T11:13:15.612Z,-1.30
2022-12-14T11:15:43.882Z,-1.30
2022-12-14T11:18:16.880Z,-1.40
2022-12-14T11:20:56.412Z,-1.40
2022-12-14T11:23:29.136Z,-1.40
2022-12-14T11:25:58.955Z,-1.40
2022-12-14T11:28:39.803Z,-1.40
2022-12-14T11:31:09.115Z,-1.30
2022-12-14T11:33:50.833Z,-1.30
2022-12-14T11:36:36.074Z,-1.30
2022-12-14T11:39:16.601Z,-1.30
2022-12-14T11:41:49.119Z,-1.20
2022-12-14T11:44:15.893Z,-1.20
2022-12-14T11:46:52.632Z,-1.20
2022-12-14T11:49:26.570Z,-1.20
2022-12-14T11:52:02.118Z,-1.10
2022-12-14T11:54:29.469Z,-1.20
2022-12-14T11:57:07.240Z,-1.10
2022-12-14T11:59:58.820Z,-1.10
2022-12-14T12:02:31.558Z,-1.10
2022-12-14T12:05:07.824Z,-1.10
2022-12-14T12:07:42.558Z,-1.10
2022-12-14T12:10:12.358Z,-1.00
2022-12-14T12:13:04.098Z,-1.10
2022-12-14T12:15:43.220Z,-1.10
2022-12-14T12:18:28.975Z,-1.10
2022-12-14T12:21:08.194Z,-1.10
2022-12-14T12:24:12.156Z,-1.10
2022-12-14T12:26:43.623Z,-1.00
2022-12-14T12:29:29.638Z,-1.00
2022-12-14T12:32:08.412Z,-1.00
2022-12-14T12:34:40.488Z,-1.00
2022-12-14T12:37:26.343Z,-0.90
2022-12-14T12:39:59.632Z,-0.80
2022-12-14T12:42:52.977Z,-0.90
2022-12-14T12:45:32.654Z,-0.90
2022-12-14T12:48:17.207Z,-0.90
2022-12-14T12:50:55.855Z,-0.80
2022-12-14T12:53:31.995Z,-0.70
2022-12-14T12:56:20.080Z,-0.70
2022-12-14T12:58:52.833Z,-0.70
2022-12-14T13:01:30.605Z,-0.70
2022-12-14T13:04:02.480Z,-0.60
2022-12-14T13:06:41.014Z,-0.60
2022-12-14T13:09:38.362Z,-0.60
2022-12-14T13:12:11.399Z,-0.50
2022-12-14T13:14:43.951Z,-0.50
2022-12-14T13:17:28.816Z,-0.50
2022-12-14T13:19:58.472Z,-0.40
2022-12-14T13:22:34.386Z,-0.40
2022-12-14T13:25:14.551Z,-0.40
2022-12-14T13:27:51.004Z,-0.40
2022-12-14T13:30:24.650Z,-0.30
2022-12-14T13:33:14.009Z,-0.30
2022-12-14T13:36:08.349Z,-0.30
2022-12-14T13:38:56.390Z,-0.30
2022-12-14T13:41:32.156Z,-0.20
2022-12-14T13:43:58.979Z,-0.20
2022-12-14T13:46:29.283Z,-0.10
2022-12-14T13:49:05.371Z,-0.20
2022-12-14T13:51:39.622Z,-0.20
2022-12-14T13:54:19.810Z,-0.10
2022-12-14T13:56:46.797Z,-0.20
2022-12-14T13:59:41.907Z,-0.20
2022-12-14T14:02:32.162Z,-0.10
2022-12-14T14:05:20.317Z,-0.10
2022-12-14T14:07:53.650Z,-0.10
2022-12-14T14:10:35.093Z,-0.10
2022-12-14T14:13:27.085Z,-0.10
2022-12-14T14:16:26.730Z,-0.10
2022-12-14T14:18:58.778Z,-0.10
2022-12-14T14:21:58.819Z,0.00
2022-12-14T14:24:28.884Z,-0.10
2022-12-14T14:27:11.353Z,-0.10
2022-12-14T14:29:46.386Z,0.00
2022-12-14T14:32:40.874Z,0.00
2022-12-14T14:35:09.137Z,-0.10
2022-12-14T14:37:38.663Z,0.00
2022-12-14T14:40:18.674Z,0.00
2022-12-14T14:43:12.702Z,0.00
2022-12-14T14:45:47.942Z,0.00
2022-12-14T14:48:20.834Z,0.10
2022-12-14T14:50:49.677Z,0.00
2022-12-14T14:53:32.073Z,0.00
2022-12-14T14:55:59.631Z,0.10
2022-12-14T14:58:33.225Z,0.00
2022-12-14T15:01:06.201Z,0.10
2022-12-14T15:03:45.594Z,0.10
2022-12-14T15:06:41.693Z,0.10
2022-12-14T15:09:39.242Z,0.20
2022-12-14T15:12:33.285Z,0.20
2022-12-14T15:15:19.175Z,0.20
2022-12-14T15:17:46.533Z,0.20
2022-12-14T15:20:22.888Z,0.20
2022-12-14T15:22:51.519Z,0.20
2022-12-14T15:25:27.882Z,0.20
2022-12-14T15:27:57.747Z,0.20
2022-12-14T15:30:28.988Z,0.20
2022-12-14T15:33:01.090Z,0.20
2022-12-14T15:35:33.138Z,0.20
2022-12-14T15:38:06.346Z,0.20
2022-12-14T15:40:35.354Z,0.20
2022-12-14T15:43:14.991Z,0.20
2022-12-14T15:45:44.107Z,0.20
2022-12-14T15:48:30.908Z,0.20
2022-12-14T15:51:03.068Z,0.20
2022-12-14T15:53:33.497Z,0.20
2022-12-14T15:56:09.997Z,0.30
2022-12-14T15:58:40.843Z,0.30
2022-12-14T16:01:17.600Z,0.30
2022-12-14T16:03:47.385Z,0.30
2022-12-14T16:06:20.174Z,0.30
2022-12-14T16:09:14.687Z,0.30
2022-12-14T16:11:49.498Z,0.30
2022-12-14T16:14:44.000Z,0.30
2022-12-14T16:17:17.695Z,0.30
2022-12-14T16:19:59.683Z,0.30
2022-12-14T16:22:30.848Z,0.40
2022-12-14T16:25:00.631Z,0.40
2022-12-14T16:27:29.739Z,0.40
2022-12-14T16:30:17.591Z,0.40
2022-12-14T16:32:49.858Z,0.40
2022-12-14T16:35:23.401Z,0.40
2022-12-14T16:37:57.642Z,0.40
2022-12-14T16:40:33.799Z,0.40
2022-12-14T16:43:01.783Z,0.40
2022-12-14T16:45:54.636Z,0.40
2022-12-14T16:48:23.201Z,0.40
2022-12-14T16:51:03.616Z,0.40
2022-12-14T16:53:40.655Z,0.40
2022-12-14T16:56:16.314Z,0.40
2022-12-14T16:58:57.249Z,0.40
2022-12-14T17:01:24.706Z,0.40
2022-12-14T17:04:00.774Z,0.40
2022-12-14T17:06:45.284Z,0.40
2022-12-14T17:09:27.510Z,0.40
2022-12-14T17:12:00.101Z,0.40
2022-12-14T17:14:28.369Z,0.50
2022-12-14T17:17:04.506Z,0.50
2022-12-14T17:19:38.965Z,0.50
2022-12-14T17:22:12.036Z,0.50
2022-12-14T17:24:38.969Z,0.50
2022-12-14T17:27:05.875Z,0.50
2022-12-14T17:29:35.663Z,0.50
2022-12-14T17:32:02.856Z,0.50
2022-12-14T17:34:29.977Z,0.50
2022-12-14T17:36:57.416Z,0.50
2022-12-14T17:39:24.939Z,0.50
2022-12-14T17:41:51.913Z,0.50
2022-12-14T17:44:20.716Z,0.50
2022-12-14T17:46:52.134Z,0.50
2022-12-14T17:49:34.125Z,0.60
2022-12-14T17:52:04.496Z,0.60
2022-12-14T17:54:32.309Z,0.60
2022-12-14T17:56:59.463Z,0.60
2022-12-14T17:59:26.767Z,0.60
2022-12-14T18:01:53.684Z,0.60
2022-12-14T18:04:20.597Z,0.60
2022-12-14T18:06:47.341Z,0.60
2022-12-14T18:09:16.126Z,0.60
2022-12-14T18:12:06.630Z,0.60
2022-12-14T18:14:29.738Z,0.60
2022-12-14T18:17:00.887Z,0.60
2022-12-14T18:19:27.726Z,0.60
2022-12-14T18:21:54.817Z,0.60
2022-12-14T18:24:25.896Z,0.60
2022-12-14T18:26:53.236Z,0.60
2022-12-14T18:29:20.349Z,0.60
2022-12-14T18:31:49.738Z,0.60
2022-12-14T18:34:16.715Z,0.50
2022-12-14T18:36:43.591Z,0.60
2022-12-14T18:39:10.547Z,0.60
2022-12-14T18:41:37.330Z,0.60
2022-12-14T18:44:04.285Z,0.60
2022-12-14T18:46:31.424Z,0.60
2022-12-14T18:48:58.401Z,0.60
2022-12-14T18:51:26.943Z,0.60
2022-12-14T18:53:55.337Z,0.60
2022-12-14T18:56:23.389Z,0.50
2022-12-14T18:58:50.756Z,0.60
2022-12-14T19:01:20.812Z,0.50
2022-12-14T19:03:48.312Z,0.60
2022-12-14T19:09:05.531Z,0.50
2022-12-14T19:11:35.111Z,0.50
2022-12-14T19:14:02.133Z,0.50
2022-12-14T19:16:29.209Z,0.50
2022-12-14T19:18:56.817Z,0.50
2022-12-14T19:21:26.681Z,0.50
2022-12-14T19:23:53.740Z,0.50
2022-12-14T19:26:21.213Z,0.50
2022-12-14T19:28:48.115Z,0.50
2022-12-14T19:31:15.119Z,0.50
2022-12-14T19:33:42.090Z,0.50
2022-12-14T19:36:09.884Z,0.50
2022-12-14T19:38:37.404Z,0.50
2022-12-14T19:41:10.883Z,0.50
2022-12-14T19:43:38.188Z,0.50
2022-12-14T19:46:09.860Z,0.50
2022-12-14T19:48:38.087Z,0.50
2022-12-14T19:51:13.261Z,0.50
2022-12-14T19:53:42.828Z,0.50
2022-12-14T19:56:10.592Z,0.50
2022-12-14T19:58:37.505Z,0.50
2022-12-14T20:01:12.128Z,0.50
2022-12-14T20:03:39.729Z,0.50
2022-12-14T20:06:07.315Z,0.50
2022-12-14T20:08:35.132Z,0.50
2022-12-14T20:11:11.125Z,0.50
2022-12-14T20:13:38.077Z,0.40
2022-12-14T20:16:05.243Z,0.40
2022-12-14T20:18:32.159Z,0.40
2022-12-14T20:21:07.855Z,0.40
2022-12-14T20:23:36.326Z,0.40
2022-12-14T20:26:05.570Z,0.50
2022-12-14T20:28:32.482Z,0.40
2022-12-14T20:31:00.596Z,0.40
2022-12-14T20:33:30.594Z,0.40
2022-12-14T20:35:58.312Z,0.30
2022-12-14T20:38:25.253Z,0.30
2022-12-14T20:40:52.351Z,0.30
2022-12-14T20:43:19.312Z,0.30
2022-12-14T20:45:46.865Z,0.30
2022-12-14T20:48:13.720Z,0.20
2022-12-14T20:50:42.493Z,0.20
2022-12-14T20:53:09.363Z,0.20
2022-12-14T20:55:36.261Z,0.20
2022-12-14T20:58:04.211Z,0.20
2022-12-14T21:00:31.138Z,0.20
2022-12-14T21:02:58.112Z,0.20
2022-12-14T21:05:28.487Z,0.20
2022-12-14T21:07:55.356Z,0.20
2022-12-14T21:10:22.168Z,0.10
2022-12-14T21:12:49.442Z,0.10
2022-12-14T21:15:16.294Z,0.10
2022-12-14T21:17:43.161Z,0.10
2022-12-14T21:20:11.503Z,0.10
2022-12-14T21:22:38.814Z,0.10
2022-12-14T21:25:07.196Z,0.10
2022-12-14T21:27:38.414Z,0.10
2022-12-14T21:30:11.247Z,0.10
2022-12-14T21:32:38.818Z,0.10
2022-12-14T21:35:06.397Z,0.10
2022-12-14T21:37:33.399Z,0.10
2022-12-14T21:40:03.194Z,0.10
2022-12-14T21:42:30.001Z,0.10
2022-12-14T21:44:57.708Z,0.10
2022-12-14T21:47:27.539Z,0.10
2022-12-14T21:49:54.630Z,0.10
2022-12-14T21:52:24.647Z,0.10
2022-12-14T21:54:51.533Z,0.10
2022-12-14T21:57:50.461Z,0.10
2022-12-14T22:00:18.214Z,0.10
2022-12-14T22:02:45.232Z,0.10
2022-12-14T22:05:12.197Z,0.10
2022-12-14T22:07:39.027Z,0.10
2022-12-14T22:10:06.228Z,0.10
2022-12-14T22:12:33.082Z,0.10
2022-12-14T22:14:59.936Z,0.10
2022-12-14T22:17:26.747Z,0.00
2022-12-14T22:19:55.178Z,-0.10
2022-12-14T22:22:22.674Z,-0.10
2022-12-14T22:24:51.145Z,-0.10
2022-12-14T22:27:18.376Z,-0.20
2022-12-14T22:29:45.294Z,-0.20
2022-12-14T22:32:12.980Z,-0.20
2022-12-14T22:34:39.860Z,-0.20
2022-12-14T22:37:06.730Z,-0.20
2022-12-14T22:39:33.588Z,-0.30
2022-12-14T22:42:00.427Z,-0.40
2022-12-14T22:44:27.391Z,-0.50
2022-12-14T22:46:54.276Z,-0.50
2022-12-14T22:49:21.224Z,-0.50
2022-12-14T22:51:48.042Z,-0.50
2022-12-14T22:54:27.354Z,-0.50
2022-12-14T22:57:06.253Z,-0.60
2022-12-14T22:59:42.730Z,-0.70
2022-12-14T23:02:10.100Z,-0.70
2022-12-14T23:04:38.067Z,-0.70
2022-12-14T23:07:05.461Z,-0.70
2022-12-14T23:09:50.828Z,-0.70
2022-12-14T23:12:36.252Z,-0.70
2022-12-14T23:15:21.564Z,-0.70
2022-12-14T23:18:06.746Z,-0.70
2022-12-14T23:20:52.235Z,-0.80
2022-12-14T23:23:37.665Z,-0.90
2022-12-14T23:26:23.554Z,-0.80
2022-12-14T23:29:08.734Z,-0.90
2022-12-14T23:31:54.567Z,-1.00
2022-12-14T23:34:40.053Z,-1.00
2022-12-14T23:37:25.644Z,-1.00
2022-12-14T23:40:11.193Z,-1.00
2022-12-14T23:42:56.412Z,-1.00
2022-12-14T23:45:42.036Z,-1.00
2022-12-14T23:48:27.323Z,-1.00
2022-12-14T23:51:12.693Z,-1.00
2022-12-14T23:53:58.418Z,-1.00
2022-12-14T23:56:43.625Z,-1.00
2022-12-14T23:59:32.244Z,-1.00
